sensor_id;sensor_type;location;lat;lon;timestamp;temperature;humidity
4207;DHT22;2117;47.972;7.830;2024-03-22T00:00:58;11.70;99.90
4207;DHT22;2117;47.972;7.830;2024-03-22T00:03:23;11.60;99.90
4207;DHT22;2117;47.972;7.830;2024-03-22T00:05:49;11.60;99.90
4207;DHT22;2117;47.972;7.830;2024-03-22T00:08:14;11.60;99.90
4207;DHT22;2117;47.972;7.830;2024-03-22T00:10:40;11.60;99.90
4207;DHT22;2117;47.972;7.830;2024-03-22T00:13:06;11.50;99.90
4207;DHT22;2117;47.972;7.830;2024-03-22T00:15:34;11.50;99.90
4207;DHT22;2117;47.972;7.830;2024-03-22T00:17:59;11.50;99.90
4207;DHT22;2117;47.972;7.830;2024-03-22T00:20:25;11.40;99.90
4207;DHT22;2117;47.972;7.830;2024-03-22T00:22:50;11.40;99.90
4207;DHT22;2117;47.972;7.830;2024-03-22T00:25:16;11.30;99.90
4207;DHT22;2117;47.972;7.830;2024-03-22T00:27:41;11.30;99.90
4207;DHT22;2117;47.972;7.830;2024-03-22T00:30:08;11.30;99.90
4207;DHT22;2117;47.972;7.830;2024-03-22T00:32:33;11.30;99.90
4207;DHT22;2117;47.972;7.830;2024-03-22T00:34:59;11.30;99.90
4207;DHT22;2117;47.972;7.830;2024-03-22T00:37:24;11.30;99.90
4207;DHT22;2117;47.972;7.830;2024-03-22T00:39:50;11.30;99.90
4207;DHT22;2117;47.972;7.830;2024-03-22T00:42:15;11.20;99.90
4207;DHT22;2117;47.972;7.830;2024-03-22T00:44:41;11.20;99.90
4207;DHT22;2117;47.972;7.830;2024-03-22T00:47:07;11.20;99.90
4207;DHT22;2117;47.972;7.830;2024-03-22T00:49:32;11.20;99.90
4207;DHT22;2117;47.972;7.830;2024-03-22T00:51:58;11.20;99.90
4207;DHT22;2117;47.972;7.830;2024-03-22T00:54:23;11.20;99.90
4207;DHT22;2117;47.972;7.830;2024-03-22T00:56:49;11.20;99.90
4207;DHT22;2117;47.972;7.830;2024-03-22T00:59:15;11.10;99.90
4207;DHT22;2117;47.972;7.830;2024-03-22T01:01:40;11.10;99.90
4207;DHT22;2117;47.972;7.830;2024-03-22T01:04:06;11.00;99.90
4207;DHT22;2117;47.972;7.830;2024-03-22T01:06:34;10.90;99.90
4207;DHT22;2117;47.972;7.830;2024-03-22T01:09:00;10.90;99.90
4207;DHT22;2117;47.972;7.830;2024-03-22T01:11:25;10.90;99.90
4207;DHT22;2117;47.972;7.830;2024-03-22T01:13:51;10.90;99.90
4207;DHT22;2117;47.972;7.830;2024-03-22T01:16:16;10.80;99.90
4207;DHT22;2117;47.972;7.830;2024-03-22T01:18:42;10.80;99.90
4207;DHT22;2117;47.972;7.830;2024-03-22T01:21:08;10.80;99.90
4207;DHT22;2117;47.972;7.830;2024-03-22T01:23:33;10.80;99.90
4207;DHT22;2117;47.972;7.830;2024-03-22T01:25:59;10.70;99.90
4207;DHT22;2117;47.972;7.830;2024-03-22T01:28:24;10.70;99.90
4207;DHT22;2117;47.972;7.830;2024-03-22T01:30:50;10.70;99.90
4207;DHT22;2117;47.972;7.830;2024-03-22T01:33:15;10.60;99.90
4207;DHT22;2117;47.972;7.830;2024-03-22T01:35:41;10.60;99.90
4207;DHT22;2117;47.972;7.830;2024-03-22T01:38:07;10.60;99.90
4207;DHT22;2117;47.972;7.830;2024-03-22T01:40:32;10.60;99.90
4207;DHT22;2117;47.972;7.830;2024-03-22T01:42:58;10.60;99.90
4207;DHT22;2117;47.972;7.830;2024-03-22T01:45:25;10.60;99.90
4207;DHT22;2117;47.972;7.830;2024-03-22T01:47:51;10.60;99.90
4207;DHT22;2117;47.972;7.830;2024-03-22T01:50:20;10.50;99.90
4207;DHT22;2117;47.972;7.830;2024-03-22T01:52:45;10.50;99.90
4207;DHT22;2117;47.972;7.830;2024-03-22T01:55:11;10.60;99.90
4207;DHT22;2117;47.972;7.830;2024-03-22T01:57:38;10.50;99.90
4207;DHT22;2117;47.972;7.830;2024-03-22T02:00:04;10.60;99.90
4207;DHT22;2117;47.972;7.830;2024-03-22T02:02:30;10.50;99.90
4207;DHT22;2117;47.972;7.830;2024-03-22T02:04:56;10.50;99.90
4207;DHT22;2117;47.972;7.830;2024-03-22T02:07:22;10.50;99.90
4207;DHT22;2117;47.972;7.830;2024-03-22T02:09:48;10.50;99.90
4207;DHT22;2117;47.972;7.830;2024-03-22T02:12:13;10.50;99.90
4207;DHT22;2117;47.972;7.830;2024-03-22T02:14:39;10.50;99.90
4207;DHT22;2117;47.972;7.830;2024-03-22T02:17:05;10.40;99.90
4207;DHT22;2117;47.972;7.830;2024-03-22T02:19:30;10.40;99.90
4207;DHT22;2117;47.972;7.830;2024-03-22T02:21:56;10.40;99.90
4207;DHT22;2117;47.972;7.830;2024-03-22T02:24:21;10.30;99.90
4207;DHT22;2117;47.972;7.830;2024-03-22T02:26:47;10.30;99.90
4207;DHT22;2117;47.972;7.830;2024-03-22T02:29:12;10.30;99.90
4207;DHT22;2117;47.972;7.830;2024-03-22T02:31:38;10.30;99.90
4207;DHT22;2117;47.972;7.830;2024-03-22T02:34:03;10.20;99.90
4207;DHT22;2117;47.972;7.830;2024-03-22T02:36:29;10.20;99.90
4207;DHT22;2117;47.972;7.830;2024-03-22T02:38:55;10.20;99.90
4207;DHT22;2117;47.972;7.830;2024-03-22T02:41:21;10.30;99.90
4207;DHT22;2117;47.972;7.830;2024-03-22T02:43:47;10.20;99.90
4207;DHT22;2117;47.972;7.830;2024-03-22T02:46:12;10.20;99.90
4207;DHT22;2117;47.972;7.830;2024-03-22T02:48:38;10.20;99.90
4207;DHT22;2117;47.972;7.830;2024-03-22T02:51:04;10.30;99.90
4207;DHT22;2117;47.972;7.830;2024-03-22T02:53:29;10.30;99.90
4207;DHT22;2117;47.972;7.830;2024-03-22T02:55:55;10.30;99.90
4207;DHT22;2117;47.972;7.830;2024-03-22T02:58:21;10.30;99.90
4207;DHT22;2117;47.972;7.830;2024-03-22T03:00:47;10.30;99.90
4207;DHT22;2117;47.972;7.830;2024-03-22T03:03:13;10.30;99.90
4207;DHT22;2117;47.972;7.830;2024-03-22T03:05:38;10.30;99.90
4207;DHT22;2117;47.972;7.830;2024-03-22T03:08:04;10.30;99.90
4207;DHT22;2117;47.972;7.830;2024-03-22T03:10:30;10.30;99.90
4207;DHT22;2117;47.972;7.830;2024-03-22T03:12:55;10.30;99.90
4207;DHT22;2117;47.972;7.830;2024-03-22T03:15:21;10.30;99.90
4207;DHT22;2117;47.972;7.830;2024-03-22T03:17:46;10.30;99.90
4207;DHT22;2117;47.972;7.830;2024-03-22T03:20:12;10.20;99.90
4207;DHT22;2117;47.972;7.830;2024-03-22T03:22:39;10.20;99.90
4207;DHT22;2117;47.972;7.830;2024-03-22T03:25:05;10.30;99.90
4207;DHT22;2117;47.972;7.830;2024-03-22T03:27:32;10.30;99.90
4207;DHT22;2117;47.972;7.830;2024-03-22T03:29:58;10.20;99.90
4207;DHT22;2117;47.972;7.830;2024-03-22T03:32:23;10.20;99.90
4207;DHT22;2117;47.972;7.830;2024-03-22T03:34:50;10.20;99.90
4207;DHT22;2117;47.972;7.830;2024-03-22T03:37:16;10.20;99.90
4207;DHT22;2117;47.972;7.830;2024-03-22T03:39:41;10.30;99.90
4207;DHT22;2117;47.972;7.830;2024-03-22T03:42:07;10.20;99.90
4207;DHT22;2117;47.972;7.830;2024-03-22T03:44:32;10.20;99.90
4207;DHT22;2117;47.972;7.830;2024-03-22T03:47:01;10.30;99.90
4207;DHT22;2117;47.972;7.830;2024-03-22T03:49:26;10.30;99.90
4207;DHT22;2117;47.972;7.830;2024-03-22T03:51:52;10.30;99.90
4207;DHT22;2117;47.972;7.830;2024-03-22T03:54:18;10.30;99.90
4207;DHT22;2117;47.972;7.830;2024-03-22T03:56:43;10.30;99.90
4207;DHT22;2117;47.972;7.830;2024-03-22T03:59:09;10.30;99.90
4207;DHT22;2117;47.972;7.830;2024-03-22T04:01:34;10.40;99.90
4207;DHT22;2117;47.972;7.830;2024-03-22T04:04:02;10.30;99.90
4207;DHT22;2117;47.972;7.830;2024-03-22T04:06:28;10.40;99.90
4207;DHT22;2117;47.972;7.830;2024-03-22T04:08:53;10.40;99.90
4207;DHT22;2117;47.972;7.830;2024-03-22T04:11:19;10.40;99.90
4207;DHT22;2117;47.972;7.830;2024-03-22T04:13:45;10.40;99.90
4207;DHT22;2117;47.972;7.830;2024-03-22T04:16:10;10.40;99.90
4207;DHT22;2117;47.972;7.830;2024-03-22T04:18:36;10.40;99.90
4207;DHT22;2117;47.972;7.830;2024-03-22T04:21:02;10.40;99.90
4207;DHT22;2117;47.972;7.830;2024-03-22T04:23:27;10.40;99.90
4207;DHT22;2117;47.972;7.830;2024-03-22T04:25:58;10.40;99.90
4207;DHT22;2117;47.972;7.830;2024-03-22T04:28:27;10.40;99.90
4207;DHT22;2117;47.972;7.830;2024-03-22T04:33:28;10.40;99.90
4207;DHT22;2117;47.972;7.830;2024-03-22T04:35:55;10.40;99.90
4207;DHT22;2117;47.972;7.830;2024-03-22T04:38:22;10.40;99.90
4207;DHT22;2117;47.972;7.830;2024-03-22T04:40:48;10.40;99.90
4207;DHT22;2117;47.972;7.830;2024-03-22T04:43:17;10.40;99.90
4207;DHT22;2117;47.972;7.830;2024-03-22T04:45:43;10.40;99.90
4207;DHT22;2117;47.972;7.830;2024-03-22T04:48:09;10.40;99.90
4207;DHT22;2117;47.972;7.830;2024-03-22T04:50:35;10.40;99.90
4207;DHT22;2117;47.972;7.830;2024-03-22T04:53:02;10.40;99.90
4207;DHT22;2117;47.972;7.830;2024-03-22T04:55:27;10.40;99.90
4207;DHT22;2117;47.972;7.830;2024-03-22T04:57:53;10.50;99.90
4207;DHT22;2117;47.972;7.830;2024-03-22T05:00:18;10.50;99.90
4207;DHT22;2117;47.972;7.830;2024-03-22T05:02:44;10.50;99.90
4207;DHT22;2117;47.972;7.830;2024-03-22T05:05:11;10.50;99.90
4207;DHT22;2117;47.972;7.830;2024-03-22T05:07:36;10.50;99.90
4207;DHT22;2117;47.972;7.830;2024-03-22T05:10:02;10.50;99.90
4207;DHT22;2117;47.972;7.830;2024-03-22T05:12:28;10.50;99.90
4207;DHT22;2117;47.972;7.830;2024-03-22T05:14:55;10.50;99.90
4207;DHT22;2117;47.972;7.830;2024-03-22T05:17:20;10.50;99.90
4207;DHT22;2117;47.972;7.830;2024-03-22T05:19:46;10.60;99.90
4207;DHT22;2117;47.972;7.830;2024-03-22T05:22:12;10.60;99.90
4207;DHT22;2117;47.972;7.830;2024-03-22T05:24:38;10.60;99.90
4207;DHT22;2117;47.972;7.830;2024-03-22T05:27:03;10.60;99.90
4207;DHT22;2117;47.972;7.830;2024-03-22T05:29:29;10.60;99.90
4207;DHT22;2117;47.972;7.830;2024-03-22T05:31:55;10.60;99.90
4207;DHT22;2117;47.972;7.830;2024-03-22T05:34:20;10.60;99.90
4207;DHT22;2117;47.972;7.830;2024-03-22T05:36:46;10.60;99.90
4207;DHT22;2117;47.972;7.830;2024-03-22T05:39:12;10.60;99.90
4207;DHT22;2117;47.972;7.830;2024-03-22T05:41:38;10.60;99.90
4207;DHT22;2117;47.972;7.830;2024-03-22T05:44:04;10.60;99.90
4207;DHT22;2117;47.972;7.830;2024-03-22T05:46:30;10.60;99.90
4207;DHT22;2117;47.972;7.830;2024-03-22T05:48:56;10.50;99.90
4207;DHT22;2117;47.972;7.830;2024-03-22T05:51:22;10.50;99.90
4207;DHT22;2117;47.972;7.830;2024-03-22T05:53:47;10.50;99.90
4207;DHT22;2117;47.972;7.830;2024-03-22T05:56:13;10.50;99.90
4207;DHT22;2117;47.972;7.830;2024-03-22T05:58:39;10.50;99.90
4207;DHT22;2117;47.972;7.830;2024-03-22T06:01:05;10.50;99.90
4207;DHT22;2117;47.972;7.830;2024-03-22T06:03:31;10.40;99.90
4207;DHT22;2117;47.972;7.830;2024-03-22T06:05:58;10.40;99.90
4207;DHT22;2117;47.972;7.830;2024-03-22T06:08:28;10.40;99.90
4207;DHT22;2117;47.972;7.830;2024-03-22T06:10:54;10.40;99.90
4207;DHT22;2117;47.972;7.830;2024-03-22T06:13:21;10.40;99.90
4207;DHT22;2117;47.972;7.830;2024-03-22T06:15:48;10.30;99.90
4207;DHT22;2117;47.972;7.830;2024-03-22T06:18:15;10.30;99.90
4207;DHT22;2117;47.972;7.830;2024-03-22T06:20:41;10.30;99.90
4207;DHT22;2117;47.972;7.830;2024-03-22T06:23:07;10.30;99.90
4207;DHT22;2117;47.972;7.830;2024-03-22T06:25:33;10.40;99.90
4207;DHT22;2117;47.972;7.830;2024-03-22T06:27:59;10.40;99.90
4207;DHT22;2117;47.972;7.830;2024-03-22T06:30:24;10.30;99.90
4207;DHT22;2117;47.972;7.830;2024-03-22T06:32:50;10.40;99.90
4207;DHT22;2117;47.972;7.830;2024-03-22T06:35:15;10.40;99.90
4207;DHT22;2117;47.972;7.830;2024-03-22T06:37:41;10.40;99.90
4207;DHT22;2117;47.972;7.830;2024-03-22T06:40:10;10.40;99.90
4207;DHT22;2117;47.972;7.830;2024-03-22T06:42:35;10.40;99.90
4207;DHT22;2117;47.972;7.830;2024-03-22T06:45:02;10.40;99.90
4207;DHT22;2117;47.972;7.830;2024-03-22T06:47:28;10.40;99.90
4207;DHT22;2117;47.972;7.830;2024-03-22T06:49:53;10.40;99.90
4207;DHT22;2117;47.972;7.830;2024-03-22T06:52:19;10.50;99.90
4207;DHT22;2117;47.972;7.830;2024-03-22T06:54:45;10.50;99.90
4207;DHT22;2117;47.972;7.830;2024-03-22T06:57:11;10.60;99.90
4207;DHT22;2117;47.972;7.830;2024-03-22T06:59:36;10.60;99.90
4207;DHT22;2117;47.972;7.830;2024-03-22T07:02:02;10.60;99.90
4207;DHT22;2117;47.972;7.830;2024-03-22T07:04:28;10.80;99.90
4207;DHT22;2117;47.972;7.830;2024-03-22T07:06:53;10.90;99.90
4207;DHT22;2117;47.972;7.830;2024-03-22T07:09:19;11.00;99.90
4207;DHT22;2117;47.972;7.830;2024-03-22T07:11:45;11.10;99.90
4207;DHT22;2117;47.972;7.830;2024-03-22T07:14:10;11.10;99.90
4207;DHT22;2117;47.972;7.830;2024-03-22T07:16:36;11.20;99.90
4207;DHT22;2117;47.972;7.830;2024-03-22T07:19:02;11.30;99.90
4207;DHT22;2117;47.972;7.830;2024-03-22T07:21:29;11.40;99.90
4207;DHT22;2117;47.972;7.830;2024-03-22T07:23:54;11.40;99.90
4207;DHT22;2117;47.972;7.830;2024-03-22T07:26:20;11.50;99.90
4207;DHT22;2117;47.972;7.830;2024-03-22T07:28:45;11.50;99.90
4207;DHT22;2117;47.972;7.830;2024-03-22T07:31:11;11.60;99.90
4207;DHT22;2117;47.972;7.830;2024-03-22T07:33:37;11.60;99.90
4207;DHT22;2117;47.972;7.830;2024-03-22T07:36:04;11.70;99.90
4207;DHT22;2117;47.972;7.830;2024-03-22T07:38:30;11.70;99.90
4207;DHT22;2117;47.972;7.830;2024-03-22T07:40:55;11.80;99.90
4207;DHT22;2117;47.972;7.830;2024-03-22T07:43:21;11.90;99.90
4207;DHT22;2117;47.972;7.830;2024-03-22T07:45:47;12.00;99.90
4207;DHT22;2117;47.972;7.830;2024-03-22T07:48:12;12.00;99.90
4207;DHT22;2117;47.972;7.830;2024-03-22T07:50:38;12.10;99.90
4207;DHT22;2117;47.972;7.830;2024-03-22T07:53:03;12.20;99.90
4207;DHT22;2117;47.972;7.830;2024-03-22T07:55:29;12.30;99.90
4207;DHT22;2117;47.972;7.830;2024-03-22T07:57:54;12.30;99.90
4207;DHT22;2117;47.972;7.830;2024-03-22T08:00:20;12.40;99.90
4207;DHT22;2117;47.972;7.830;2024-03-22T08:02:45;12.50;99.90
4207;DHT22;2117;47.972;7.830;2024-03-22T08:05:11;12.60;99.90
4207;DHT22;2117;47.972;7.830;2024-03-22T08:07:36;12.70;99.90
4207;DHT22;2117;47.972;7.830;2024-03-22T08:10:02;12.80;99.90
4207;DHT22;2117;47.972;7.830;2024-03-22T08:12:29;12.90;99.90
4207;DHT22;2117;47.972;7.830;2024-03-22T08:14:55;13.00;99.90
4207;DHT22;2117;47.972;7.830;2024-03-22T08:17:21;13.10;99.90
4207;DHT22;2117;47.972;7.830;2024-03-22T08:19:46;13.30;99.90
4207;DHT22;2117;47.972;7.830;2024-03-22T08:22:12;13.40;99.90
4207;DHT22;2117;47.972;7.830;2024-03-22T08:24:38;13.50;99.90
4207;DHT22;2117;47.972;7.830;2024-03-22T08:27:03;13.60;99.90
4207;DHT22;2117;47.972;7.830;2024-03-22T08:29:29;13.70;99.90
4207;DHT22;2117;47.972;7.830;2024-03-22T08:31:55;13.70;99.90
4207;DHT22;2117;47.972;7.830;2024-03-22T08:34:21;13.80;99.90
4207;DHT22;2117;47.972;7.830;2024-03-22T08:36:47;13.90;99.90
4207;DHT22;2117;47.972;7.830;2024-03-22T08:39:13;14.00;99.90
4207;DHT22;2117;47.972;7.830;2024-03-22T08:41:38;14.10;99.90
4207;DHT22;2117;47.972;7.830;2024-03-22T08:44:04;14.20;99.90
4207;DHT22;2117;47.972;7.830;2024-03-22T08:46:30;14.20;99.90
4207;DHT22;2117;47.972;7.830;2024-03-22T08:48:57;14.40;99.90
4207;DHT22;2117;47.972;7.830;2024-03-22T08:51:23;14.50;99.90
4207;DHT22;2117;47.972;7.830;2024-03-22T08:53:48;14.50;99.90
4207;DHT22;2117;47.972;7.830;2024-03-22T08:56:14;14.70;99.90
4207;DHT22;2117;47.972;7.830;2024-03-22T08:58:39;14.80;99.90
4207;DHT22;2117;47.972;7.830;2024-03-22T09:01:05;14.90;99.90
4207;DHT22;2117;47.972;7.830;2024-03-22T09:03:31;14.90;99.90
4207;DHT22;2117;47.972;7.830;2024-03-22T09:05:57;15.00;99.90
4207;DHT22;2117;47.972;7.830;2024-03-22T09:08:23;15.00;99.90
4207;DHT22;2117;47.972;7.830;2024-03-22T09:10:48;15.20;99.90
4207;DHT22;2117;47.972;7.830;2024-03-22T09:13:14;15.30;99.90
4207;DHT22;2117;47.972;7.830;2024-03-22T09:15:40;15.40;99.90
4207;DHT22;2117;47.972;7.830;2024-03-22T09:18:05;15.50;99.90
4207;DHT22;2117;47.972;7.830;2024-03-22T09:20:31;15.60;99.90
4207;DHT22;2117;47.972;7.830;2024-03-22T09:22:57;15.80;99.90
4207;DHT22;2117;47.972;7.830;2024-03-22T09:25:26;15.80;99.90
4207;DHT22;2117;47.972;7.830;2024-03-22T09:27:52;16.00;99.90
4207;DHT22;2117;47.972;7.830;2024-03-22T09:30:17;16.10;99.90
4207;DHT22;2117;47.972;7.830;2024-03-22T09:32:43;16.10;99.90
4207;DHT22;2117;47.972;7.830;2024-03-22T09:35:09;16.20;99.90
4207;DHT22;2117;47.972;7.830;2024-03-22T09:37:35;16.30;99.90
4207;DHT22;2117;47.972;7.830;2024-03-22T09:40:01;16.40;99.90
4207;DHT22;2117;47.972;7.830;2024-03-22T09:42:32;16.50;99.90
4207;DHT22;2117;47.972;7.830;2024-03-22T09:44:58;16.50;99.90
4207;DHT22;2117;47.972;7.830;2024-03-22T09:47:25;16.50;99.90
4207;DHT22;2117;47.972;7.830;2024-03-22T09:49:52;16.60;99.90
4207;DHT22;2117;47.972;7.830;2024-03-22T09:52:19;16.60;99.90
4207;DHT22;2117;47.972;7.830;2024-03-22T09:54:46;16.70;99.90
4207;DHT22;2117;47.972;7.830;2024-03-22T09:57:15;16.80;99.90
4207;DHT22;2117;47.972;7.830;2024-03-22T09:59:47;16.80;99.90
4207;DHT22;2117;47.972;7.830;2024-03-22T10:02:13;16.90;99.90
4207;DHT22;2117;47.972;7.830;2024-03-22T10:04:39;16.90;99.90
4207;DHT22;2117;47.972;7.830;2024-03-22T10:07:05;17.00;99.90
4207;DHT22;2117;47.972;7.830;2024-03-22T10:09:32;17.00;99.90
4207;DHT22;2117;47.972;7.830;2024-03-22T10:11:58;17.00;99.90
4207;DHT22;2117;47.972;7.830;2024-03-22T10:14:24;16.90;99.90
4207;DHT22;2117;47.972;7.830;2024-03-22T10:16:53;16.90;99.90
4207;DHT22;2117;47.972;7.830;2024-03-22T10:19:23;16.90;99.90
4207;DHT22;2117;47.972;7.830;2024-03-22T10:22:03;16.90;99.90
4207;DHT22;2117;47.972;7.830;2024-03-22T10:24:29;17.00;99.90
4207;DHT22;2117;47.972;7.830;2024-03-22T10:26:55;17.10;99.90
4207;DHT22;2117;47.972;7.830;2024-03-22T10:29:22;17.20;99.90
4207;DHT22;2117;47.972;7.830;2024-03-22T10:31:49;17.20;99.90
4207;DHT22;2117;47.972;7.830;2024-03-22T10:34:16;17.30;99.90
4207;DHT22;2117;47.972;7.830;2024-03-22T10:36:44;17.40;99.90
4207;DHT22;2117;47.972;7.830;2024-03-22T10:39:13;17.60;99.90
4207;DHT22;2117;47.972;7.830;2024-03-22T10:41:38;17.70;99.90
4207;DHT22;2117;47.972;7.830;2024-03-22T10:44:04;17.90;99.90
4207;DHT22;2117;47.972;7.830;2024-03-22T10:46:30;18.00;99.90
4207;DHT22;2117;47.972;7.830;2024-03-22T10:48:57;18.10;99.90
4207;DHT22;2117;47.972;7.830;2024-03-22T10:51:24;18.20;99.90
4207;DHT22;2117;47.972;7.830;2024-03-22T10:53:53;18.30;99.90
4207;DHT22;2117;47.972;7.830;2024-03-22T10:56:21;18.40;99.90
4207;DHT22;2117;47.972;7.830;2024-03-22T10:58:47;18.60;99.90
4207;DHT22;2117;47.972;7.830;2024-03-22T11:01:25;18.80;99.90
4207;DHT22;2117;47.972;7.830;2024-03-22T11:04:02;19.10;99.90
4207;DHT22;2117;47.972;7.830;2024-03-22T11:06:30;19.20;99.90
4207;DHT22;2117;47.972;7.830;2024-03-22T11:08:59;19.30;99.90
4207;DHT22;2117;47.972;7.830;2024-03-22T11:11:28;19.40;99.90
4207;DHT22;2117;47.972;7.830;2024-03-22T11:13:55;19.50;99.90
4207;DHT22;2117;47.972;7.830;2024-03-22T11:16:21;19.50;99.90
4207;DHT22;2117;47.972;7.830;2024-03-22T11:18:48;19.60;99.90
4207;DHT22;2117;47.972;7.830;2024-03-22T11:21:15;19.70;99.90
4207;DHT22;2117;47.972;7.830;2024-03-22T11:23:40;19.90;99.90
4207;DHT22;2117;47.972;7.830;2024-03-22T11:26:06;20.10;99.90
4207;DHT22;2117;47.972;7.830;2024-03-22T11:28:33;20.20;99.90
4207;DHT22;2117;47.972;7.830;2024-03-22T11:30:59;20.20;99.90
4207;DHT22;2117;47.972;7.830;2024-03-22T11:33:25;20.20;99.90
4207;DHT22;2117;47.972;7.830;2024-03-22T11:35:52;20.20;99.90
4207;DHT22;2117;47.972;7.830;2024-03-22T11:38:18;20.20;99.90
4207;DHT22;2117;47.972;7.830;2024-03-22T11:40:44;20.20;99.90
4207;DHT22;2117;47.972;7.830;2024-03-22T11:43:11;20.20;99.90
4207;DHT22;2117;47.972;7.830;2024-03-22T11:45:40;20.30;99.60
4207;DHT22;2117;47.972;7.830;2024-03-22T11:48:06;20.50;99.70
4207;DHT22;2117;47.972;7.830;2024-03-22T11:50:32;20.60;99.90
4207;DHT22;2117;47.972;7.830;2024-03-22T11:52:58;20.80;99.40
4207;DHT22;2117;47.972;7.830;2024-03-22T11:55:26;21.00;97.80
4207;DHT22;2117;47.972;7.830;2024-03-22T11:57:53;21.10;97.50
4207;DHT22;2117;47.972;7.830;2024-03-22T12:00:19;21.30;95.70
4207;DHT22;2117;47.972;7.830;2024-03-22T12:02:45;21.30;95.10
4207;DHT22;2117;47.972;7.830;2024-03-22T12:05:11;21.40;93.40
4207;DHT22;2117;47.972;7.830;2024-03-22T12:07:37;21.50;92.60
4207;DHT22;2117;47.972;7.830;2024-03-22T12:10:03;21.70;91.70
4207;DHT22;2117;47.972;7.830;2024-03-22T12:12:29;21.80;92.80
4207;DHT22;2117;47.972;7.830;2024-03-22T12:14:55;21.80;94.60
4207;DHT22;2117;47.972;7.830;2024-03-22T12:17:21;21.90;93.10
4207;DHT22;2117;47.972;7.830;2024-03-22T12:19:46;21.90;92.00
4207;DHT22;2117;47.972;7.830;2024-03-22T12:22:12;21.90;92.30
4207;DHT22;2117;47.972;7.830;2024-03-22T12:24:38;22.10;92.10
4207;DHT22;2117;47.972;7.830;2024-03-22T12:27:04;22.30;92.50
4207;DHT22;2117;47.972;7.830;2024-03-22T12:29:32;22.50;91.00
4207;DHT22;2117;47.972;7.830;2024-03-22T12:31:59;22.70;91.30
4207;DHT22;2117;47.972;7.830;2024-03-22T12:34:27;22.80;88.70
4207;DHT22;2117;47.972;7.830;2024-03-22T12:36:52;22.90;88.20
4207;DHT22;2117;47.972;7.830;2024-03-22T12:39:18;23.00;88.00
4207;DHT22;2117;47.972;7.830;2024-03-22T12:41:44;23.20;87.80
4207;DHT22;2117;47.972;7.830;2024-03-22T12:44:09;23.20;83.70
4207;DHT22;2117;47.972;7.830;2024-03-22T12:46:35;23.30;86.80
4207;DHT22;2117;47.972;7.830;2024-03-22T12:49:00;23.40;84.10
4207;DHT22;2117;47.972;7.830;2024-03-22T12:51:26;23.40;85.90
4207;DHT22;2117;47.972;7.830;2024-03-22T12:53:51;23.50;85.60
4207;DHT22;2117;47.972;7.830;2024-03-22T12:56:17;23.50;81.90
4207;DHT22;2117;47.972;7.830;2024-03-22T12:58:43;23.50;82.30
4207;DHT22;2117;47.972;7.830;2024-03-22T13:01:09;23.60;84.00
4207;DHT22;2117;47.972;7.830;2024-03-22T13:03:36;23.80;82.60
4207;DHT22;2117;47.972;7.830;2024-03-22T13:06:02;24.00;81.30
4207;DHT22;2117;47.972;7.830;2024-03-22T13:08:28;24.30;81.10
4207;DHT22;2117;47.972;7.830;2024-03-22T13:10:54;24.40;79.80
4207;DHT22;2117;47.972;7.830;2024-03-22T13:13:19;24.50;80.40
4207;DHT22;2117;47.972;7.830;2024-03-22T13:15:45;24.70;78.20
4207;DHT22;2117;47.972;7.830;2024-03-22T13:18:13;24.80;78.80
4207;DHT22;2117;47.972;7.830;2024-03-22T13:20:39;25.10;78.50
4207;DHT22;2117;47.972;7.830;2024-03-22T13:23:05;25.40;78.00
4207;DHT22;2117;47.972;7.830;2024-03-22T13:25:30;25.50;77.60
4207;DHT22;2117;47.972;7.830;2024-03-22T13:27:56;25.50;76.20
4207;DHT22;2117;47.972;7.830;2024-03-22T13:30:22;25.50;75.10
4207;DHT22;2117;47.972;7.830;2024-03-22T13:32:48;25.40;72.60
4207;DHT22;2117;47.972;7.830;2024-03-22T13:35:13;25.20;72.00
4207;DHT22;2117;47.972;7.830;2024-03-22T13:37:40;25.00;74.00
4207;DHT22;2117;47.972;7.830;2024-03-22T13:40:06;24.80;75.60
4207;DHT22;2117;47.972;7.830;2024-03-22T13:42:32;24.60;77.10
4207;DHT22;2117;47.972;7.830;2024-03-22T13:44:58;24.40;77.90
4207;DHT22;2117;47.972;7.830;2024-03-22T13:47:25;24.20;78.30
4207;DHT22;2117;47.972;7.830;2024-03-22T13:49:53;24.20;79.20
4207;DHT22;2117;47.972;7.830;2024-03-22T13:52:18;24.50;80.00
4207;DHT22;2117;47.972;7.830;2024-03-22T13:54:46;24.70;79.60
4207;DHT22;2117;47.972;7.830;2024-03-22T13:57:11;24.90;81.30
4207;DHT22;2117;47.972;7.830;2024-03-22T13:59:37;25.10;81.30
4207;DHT22;2117;47.972;7.830;2024-03-22T14:02:03;25.30;81.50
4207;DHT22;2117;47.972;7.830;2024-03-22T14:04:29;25.50;81.20
4207;DHT22;2117;47.972;7.830;2024-03-22T14:06:54;25.70;78.30
4207;DHT22;2117;47.972;7.830;2024-03-22T14:09:20;25.90;78.60
4207;DHT22;2117;47.972;7.830;2024-03-22T14:11:45;26.00;78.10
4207;DHT22;2117;47.972;7.830;2024-03-22T14:14:14;26.00;79.00
4207;DHT22;2117;47.972;7.830;2024-03-22T14:16:40;26.10;79.00
4207;DHT22;2117;47.972;7.830;2024-03-22T14:19:07;26.20;79.20
4207;DHT22;2117;47.972;7.830;2024-03-22T14:21:32;26.40;82.10
4207;DHT22;2117;47.972;7.830;2024-03-22T14:23:58;26.60;78.70
4207;DHT22;2117;47.972;7.830;2024-03-22T14:26:24;26.90;79.10
4207;DHT22;2117;47.972;7.830;2024-03-22T14:28:49;26.90;74.90
4207;DHT22;2117;47.972;7.830;2024-03-22T14:31:16;26.70;72.40
4207;DHT22;2117;47.972;7.830;2024-03-22T14:33:42;26.70;75.00
4207;DHT22;2117;47.972;7.830;2024-03-22T14:36:08;26.90;75.90
4207;DHT22;2117;47.972;7.830;2024-03-22T14:38:35;26.90;74.50
4207;DHT22;2117;47.972;7.830;2024-03-22T14:41:00;26.80;72.80
4207;DHT22;2117;47.972;7.830;2024-03-22T14:43:26;26.50;72.80
4207;DHT22;2117;47.972;7.830;2024-03-22T14:45:55;26.10;72.60
4207;DHT22;2117;47.972;7.830;2024-03-22T14:48:21;25.60;73.50
4207;DHT22;2117;47.972;7.830;2024-03-22T14:50:47;25.30;74.70
4207;DHT22;2117;47.972;7.830;2024-03-22T14:53:14;25.10;75.30
4207;DHT22;2117;47.972;7.830;2024-03-22T14:56:02;24.80;75.50
4207;DHT22;2117;47.972;7.830;2024-03-22T14:58:34;24.60;75.60
4207;DHT22;2117;47.972;7.830;2024-03-22T15:01:02;24.40;76.40
4207;DHT22;2117;47.972;7.830;2024-03-22T15:03:27;24.40;76.20
4207;DHT22;2117;47.972;7.830;2024-03-22T15:05:54;24.20;76.20
4207;DHT22;2117;47.972;7.830;2024-03-22T15:08:21;24.10;75.50
4207;DHT22;2117;47.972;7.830;2024-03-22T15:10:47;24.00;77.50
4207;DHT22;2117;47.972;7.830;2024-03-22T15:13:15;23.80;77.40
4207;DHT22;2117;47.972;7.830;2024-03-22T15:15:40;23.70;76.40
4207;DHT22;2117;47.972;7.830;2024-03-22T15:18:07;23.50;75.50
4207;DHT22;2117;47.972;7.830;2024-03-22T15:20:33;23.40;77.30
4207;DHT22;2117;47.972;7.830;2024-03-22T15:23:00;23.20;76.70
4207;DHT22;2117;47.972;7.830;2024-03-22T15:25:25;23.00;77.40
4207;DHT22;2117;47.972;7.830;2024-03-22T15:27:51;22.80;76.70
4207;DHT22;2117;47.972;7.830;2024-03-22T15:30:17;22.60;75.80
4207;DHT22;2117;47.972;7.830;2024-03-22T15:32:44;22.60;76.30
4207;DHT22;2117;47.972;7.830;2024-03-22T15:35:10;22.40;77.20
4207;DHT22;2117;47.972;7.830;2024-03-22T15:37:37;22.40;78.40
4207;DHT22;2117;47.972;7.830;2024-03-22T15:40:03;22.30;78.70
4207;DHT22;2117;47.972;7.830;2024-03-22T15:42:29;22.30;79.70
4207;DHT22;2117;47.972;7.830;2024-03-22T15:44:55;22.30;80.40
4207;DHT22;2117;47.972;7.830;2024-03-22T15:47:20;22.20;80.70
4207;DHT22;2117;47.972;7.830;2024-03-22T15:49:46;22.20;80.80
4207;DHT22;2117;47.972;7.830;2024-03-22T15:52:12;22.20;81.70
4207;DHT22;2117;47.972;7.830;2024-03-22T15:54:37;22.20;81.50
4207;DHT22;2117;47.972;7.830;2024-03-22T15:57:03;22.10;80.70